Seattle, Washington
Traffic Map
Current Weather Conditions
Seattle, Washington
Clear
Clear
16°
Feels Like: 16°
Wind Chill: 16° Ceiling: Unl
Heat Index: 16° Visibility: 10mi
Dew Point: 14° Wind: 12mph
Humidity: 90% Direction: 170° (S)
Pressure: 29.93in Gusts: 0mph
Raw Report DataKBFI 260953Z 17010KT 10SM CLR 16/14 A2993 RMK AO2 SLP135 T01610144
Traffic Incident Summary
Active as of:
Severity:
Category:
InformationThere was an issue retrieving the traffic information for this location. Please try a different location or try again shortly.
Advertisements
Track Severe Weather on mobile